sensor_id;sensor_type;location;lat;lon;timestamp;pressure;altitude;pressure_sealevel;temperature;humidity
55914;BME280;58179;48.776;9.124;2022-08-19T00:01:10;96914.28;;;21.30;63.19
55914;BME280;58179;48.776;9.124;2022-08-19T00:03:38;96914.72;;;21.32;62.87
55914;BME280;58179;48.776;9.124;2022-08-19T00:06:04;96915.06;;;21.31;62.73
55914;BME280;58179;48.776;9.124;2022-08-19T00:08:30;96910.94;;;21.33;63.42
55914;BME280;58179;48.776;9.124;2022-08-19T00:10:56;96907.31;;;21.29;62.71
55914;BME280;58179;48.776;9.124;2022-08-19T00:13:22;96911.47;;;21.27;63.42
55914;BME280;58179;48.776;9.124;2022-08-19T00:15:48;96912.69;;;21.29;63.59
55914;BME280;58179;48.776;9.124;2022-08-19T00:18:14;96915.28;;;21.26;63.19
55914;BME280;58179;48.776;9.124;2022-08-19T00:20:42;96920.34;;;21.27;63.45
55914;BME280;58179;48.776;9.124;2022-08-19T00:23:08;96921.31;;;21.22;63.76
55914;BME280;58179;48.776;9.124;2022-08-19T00:25:33;96925.25;;;21.25;63.59
55914;BME280;58179;48.776;9.124;2022-08-19T00:27:59;96930.31;;;21.27;63.20
55914;BME280;58179;48.776;9.124;2022-08-19T00:30:26;96910.88;;;21.21;63.44
55914;BME280;58179;48.776;9.124;2022-08-19T00:32:53;96912.78;;;21.20;62.92
55914;BME280;58179;48.776;9.124;2022-08-19T00:35:20;96903.56;;;21.21;63.69
55914;BME280;58179;48.776;9.124;2022-08-19T00:37:49;96903.47;;;21.18;63.58
55914;BME280;58179;48.776;9.124;2022-08-19T00:40:16;96892.03;;;21.21;63.43
55914;BME280;58179;48.776;9.124;2022-08-19T00:42:43;96884.47;;;21.14;63.31
55914;BME280;58179;48.776;9.124;2022-08-19T00:45:14;96886.72;;;21.12;63.67
55914;BME280;58179;48.776;9.124;2022-08-19T00:47:40;96887.63;;;21.16;63.84
55914;BME280;58179;48.776;9.124;2022-08-19T00:50:08;96887.47;;;21.13;62.94
55914;BME280;58179;48.776;9.124;2022-08-19T00:52:38;96889.41;;;21.12;63.32
55914;BME280;58179;48.776;9.124;2022-08-19T00:55:09;96891.63;;;21.10;63.87
55914;BME280;58179;48.776;9.124;2022-08-19T00:57:39;96901.16;;;21.08;63.99
55914;BME280;58179;48.776;9.124;2022-08-19T01:00:10;96903.38;;;21.06;63.76
55914;BME280;58179;48.776;9.124;2022-08-19T01:02:38;96903.38;;;21.06;64.27
55914;BME280;58179;48.776;9.124;2022-08-19T01:05:09;96902.59;;;21.05;64.58
55914;BME280;58179;48.776;9.124;2022-08-19T01:07:39;96899.56;;;21.07;64.01
55914;BME280;58179;48.776;9.124;2022-08-19T01:10:11;96910.34;;;21.07;64.09
55914;BME280;58179;48.776;9.124;2022-08-19T01:12:39;96907.19;;;21.05;64.21
55914;BME280;58179;48.776;9.124;2022-08-19T01:15:08;96896.75;;;21.03;64.67
55914;BME280;58179;48.776;9.124;2022-08-19T01:17:38;96899.00;;;21.01;64.54
55914;BME280;58179;48.776;9.124;2022-08-19T01:20:06;96897.41;;;21.00;65.04
55914;BME280;58179;48.776;9.124;2022-08-19T01:22:40;96891.38;;;21.03;63.98
55914;BME280;58179;48.776;9.124;2022-08-19T01:25:08;96893.13;;;20.99;64.03
55914;BME280;58179;48.776;9.124;2022-08-19T01:27:39;96904.38;;;21.01;64.67
55914;BME280;58179;48.776;9.124;2022-08-19T01:30:07;96905.81;;;20.99;64.19
55914;BME280;58179;48.776;9.124;2022-08-19T01:32:34;96902.69;;;20.97;64.30
55914;BME280;58179;48.776;9.124;2022-08-19T01:35:01;96894.78;;;20.92;64.63
55914;BME280;58179;48.776;9.124;2022-08-19T01:37:28;96888.88;;;20.98;64.73
55914;BME280;58179;48.776;9.124;2022-08-19T01:39:56;96881.47;;;20.95;64.41
55914;BME280;58179;48.776;9.124;2022-08-19T01:42:22;96885.13;;;20.91;64.77
55914;BME280;58179;48.776;9.124;2022-08-19T01:44:48;96888.75;;;20.95;64.51
55914;BME280;58179;48.776;9.124;2022-08-19T01:47:14;96890.19;;;20.92;64.46
55914;BME280;58179;48.776;9.124;2022-08-19T01:49:41;96902.44;;;20.90;64.78
55914;BME280;58179;48.776;9.124;2022-08-19T01:52:07;96877.06;;;20.91;64.86
55914;BME280;58179;48.776;9.124;2022-08-19T01:54:33;96883.91;;;20.88;65.05
55914;BME280;58179;48.776;9.124;2022-08-19T01:57:10;96881.88;;;20.85;65.56
55914;BME280;58179;48.776;9.124;2022-08-19T01:59:37;96887.25;;;20.85;64.99
55914;BME280;58179;48.776;9.124;2022-08-19T02:02:06;96895.66;;;20.83;64.67
55914;BME280;58179;48.776;9.124;2022-08-19T02:04:33;96895.31;;;20.85;65.74
55914;BME280;58179;48.776;9.124;2022-08-19T02:06:59;96904.06;;;20.82;65.98
55914;BME280;58179;48.776;9.124;2022-08-19T02:09:25;96902.59;;;20.84;66.21
55914;BME280;58179;48.776;9.124;2022-08-19T02:11:51;96909.09;;;20.83;66.33
55914;BME280;58179;48.776;9.124;2022-08-19T02:14:19;96898.00;;;20.85;65.73
55914;BME280;58179;48.776;9.124;2022-08-19T02:16:45;96886.00;;;20.82;65.90
55914;BME280;58179;48.776;9.124;2022-08-19T02:19:11;96887.00;;;20.78;65.93
55914;BME280;58179;48.776;9.124;2022-08-19T02:21:37;96884.63;;;20.76;65.14
55914;BME280;58179;48.776;9.124;2022-08-19T02:24:04;96889.56;;;20.74;65.57
55914;BME280;58179;48.776;9.124;2022-08-19T02:26:31;96889.88;;;20.73;65.31
55914;BME280;58179;48.776;9.124;2022-08-19T02:28:57;96887.84;;;20.70;66.18
55914;BME280;58179;48.776;9.124;2022-08-19T02:31:26;96894.34;;;20.69;65.93
55914;BME280;58179;48.776;9.124;2022-08-19T02:33:54;96893.53;;;20.68;65.73
55914;BME280;58179;48.776;9.124;2022-08-19T02:36:21;96892.97;;;20.63;66.61
55914;BME280;58179;48.776;9.124;2022-08-19T02:38:47;96891.06;;;20.63;66.88
55914;BME280;58179;48.776;9.124;2022-08-19T02:41:17;96898.34;;;20.63;67.24
55914;BME280;58179;48.776;9.124;2022-08-19T02:43:43;96899.44;;;20.62;66.56
55914;BME280;58179;48.776;9.124;2022-08-19T02:46:15;96893.28;;;20.61;66.12
55914;BME280;58179;48.776;9.124;2022-08-19T02:48:45;96885.88;;;20.58;66.79
55914;BME280;58179;48.776;9.124;2022-08-19T02:51:17;96891.25;;;20.58;66.44
55914;BME280;58179;48.776;9.124;2022-08-19T02:53:43;96891.13;;;20.55;67.07
55914;BME280;58179;48.776;9.124;2022-08-19T02:56:10;96888.44;;;20.55;67.34
55914;BME280;58179;48.776;9.124;2022-08-19T02:58:36;96890.31;;;20.54;67.11
55914;BME280;58179;48.776;9.124;2022-08-19T03:01:02;96887.19;;;20.52;67.29
55914;BME280;58179;48.776;9.124;2022-08-19T03:03:28;96879.00;;;20.48;67.23
55914;BME280;58179;48.776;9.124;2022-08-19T03:06:07;96879.78;;;20.49;67.96
55914;BME280;58179;48.776;9.124;2022-08-19T03:08:34;96882.47;;;20.49;67.59
55914;BME280;58179;48.776;9.124;2022-08-19T03:11:00;96885.00;;;20.45;67.71
55914;BME280;58179;48.776;9.124;2022-08-19T03:13:26;96894.22;;;20.44;67.96
55914;BME280;58179;48.776;9.124;2022-08-19T03:15:53;96890.59;;;20.40;67.94
55914;BME280;58179;48.776;9.124;2022-08-19T03:18:19;96899.75;;;20.39;68.24
55914;BME280;58179;48.776;9.124;2022-08-19T03:20:49;96901.97;;;20.37;67.65
55914;BME280;58179;48.776;9.124;2022-08-19T03:23:17;96905.34;;;20.34;68.94
55914;BME280;58179;48.776;9.124;2022-08-19T03:25:46;96900.44;;;20.36;68.94
55914;BME280;58179;48.776;9.124;2022-08-19T03:28:14;96893.47;;;20.35;68.82
55914;BME280;58179;48.776;9.124;2022-08-19T03:30:42;96895.50;;;20.38;68.88
55914;BME280;58179;48.776;9.124;2022-08-19T03:33:10;96885.09;;;20.37;68.90
55914;BME280;58179;48.776;9.124;2022-08-19T03:35:39;96899.97;;;20.34;69.29
55914;BME280;58179;48.776;9.124;2022-08-19T03:38:05;96899.47;;;20.32;68.76
55914;BME280;58179;48.776;9.124;2022-08-19T03:40:36;96898.66;;;20.32;68.77
55914;BME280;58179;48.776;9.124;2022-08-19T03:43:03;96900.88;;;20.30;69.03
55914;BME280;58179;48.776;9.124;2022-08-19T03:45:29;96903.13;;;20.28;68.61
55914;BME280;58179;48.776;9.124;2022-08-19T03:47:55;96895.69;;;20.25;68.89
55914;BME280;58179;48.776;9.124;2022-08-19T03:50:21;96896.81;;;20.24;68.64
55914;BME280;58179;48.776;9.124;2022-08-19T03:52:48;96891.31;;;20.20;68.52
55914;BME280;58179;48.776;9.124;2022-08-19T03:55:16;96891.16;;;20.17;69.04
55914;BME280;58179;48.776;9.124;2022-08-19T03:57:43;96901.78;;;20.13;69.12
55914;BME280;58179;48.776;9.124;2022-08-19T04:00:12;96906.06;;;20.14;69.08
55914;BME280;58179;48.776;9.124;2022-08-19T04:02:39;96905.25;;;20.14;69.47
55914;BME280;58179;48.776;9.124;2022-08-19T04:05:06;96900.53;;;20.10;68.80
55914;BME280;58179;48.776;9.124;2022-08-19T04:07:33;96908.59;;;20.10;69.30
55914;BME280;58179;48.776;9.124;2022-08-19T04:09:59;96904.81;;;20.03;68.86
55914;BME280;58179;48.776;9.124;2022-08-19T04:12:26;96904.50;;;20.04;69.97
55914;BME280;58179;48.776;9.124;2022-08-19T04:14:54;96907.38;;;19.99;69.36
55914;BME280;58179;48.776;9.124;2022-08-19T04:17:19;96915.44;;;19.99;69.65
55914;BME280;58179;48.776;9.124;2022-08-19T04:19:45;96911.50;;;19.97;69.50
55914;BME280;58179;48.776;9.124;2022-08-19T04:22:11;96900.44;;;19.98;70.25
55914;BME280;58179;48.776;9.124;2022-08-19T04:24:37;96903.91;;;19.99;69.49
55914;BME280;58179;48.776;9.124;2022-08-19T04:27:04;96905.34;;;19.96;69.69
55914;BME280;58179;48.776;9.124;2022-08-19T04:29:31;96903.75;;;19.95;69.61
55914;BME280;58179;48.776;9.124;2022-08-19T04:31:59;96904.38;;;19.92;69.39
55914;BME280;58179;48.776;9.124;2022-08-19T04:34:28;96898.69;;;19.94;70.28
55914;BME280;58179;48.776;9.124;2022-08-19T04:36:57;96896.81;;;19.94;69.79
55914;BME280;58179;48.776;9.124;2022-08-19T04:39:27;96895.09;;;19.90;69.77
55914;BME280;58179;48.776;9.124;2022-08-19T04:42:14;96903.63;;;19.92;69.41
55914;BME280;58179;48.776;9.124;2022-08-19T04:44:59;96904.25;;;19.89;69.87
55914;BME280;58179;48.776;9.124;2022-08-19T04:47:27;96899.22;;;19.87;69.72
55914;BME280;58179;48.776;9.124;2022-08-19T04:49:52;96908.38;;;19.86;70.12
55914;BME280;58179;48.776;9.124;2022-08-19T04:52:19;96906.47;;;19.87;70.19
55914;BME280;58179;48.776;9.124;2022-08-19T04:54:44;96898.41;;;19.87;70.34
55914;BME280;58179;48.776;9.124;2022-08-19T04:57:10;96905.69;;;19.86;70.47
55914;BME280;58179;48.776;9.124;2022-08-19T04:59:38;96915.47;;;19.91;70.95
55914;BME280;58179;48.776;9.124;2022-08-19T05:02:06;96912.63;;;19.87;70.46
55914;BME280;58179;48.776;9.124;2022-08-19T05:04:34;96914.22;;;19.88;70.22
55914;BME280;58179;48.776;9.124;2022-08-19T05:07:01;96916.91;;;19.88;70.14
55914;BME280;58179;48.776;9.124;2022-08-19T05:09:27;96911.84;;;19.87;70.28
55914;BME280;58179;48.776;9.124;2022-08-19T05:11:53;96917.69;;;19.89;70.48
55914;BME280;58179;48.776;9.124;2022-08-19T05:14:19;96916.13;;;19.88;70.70
55914;BME280;58179;48.776;9.124;2022-08-19T05:16:46;96924.66;;;19.90;70.24
55914;BME280;58179;48.776;9.124;2022-08-19T05:19:12;96932.22;;;19.88;70.93
55914;BME280;58179;48.776;9.124;2022-08-19T05:21:59;96932.22;;;19.88;70.07
55914;BME280;58179;48.776;9.124;2022-08-19T05:24:44;96941.41;;;19.87;70.14
55914;BME280;58179;48.776;9.124;2022-08-19T05:27:10;96968.91;;;19.84;70.19
55914;BME280;58179;48.776;9.124;2022-08-19T05:29:36;96974.72;;;19.86;70.33
55914;BME280;58179;48.776;9.124;2022-08-19T05:32:05;96986.13;;;19.83;70.75
55914;BME280;58179;48.776;9.124;2022-08-19T05:34:34;96989.28;;;19.85;70.50
55914;BME280;58179;48.776;9.124;2022-08-19T05:37:02;96994.31;;;19.86;70.95
55914;BME280;58179;48.776;9.124;2022-08-19T05:39:30;97005.38;;;19.93;71.10
55914;BME280;58179;48.776;9.124;2022-08-19T05:42:00;97008.22;;;19.97;69.94
55914;BME280;58179;48.776;9.124;2022-08-19T05:44:29;97011.50;;;20.02;70.16
55914;BME280;58179;48.776;9.124;2022-08-19T05:46:57;97000.75;;;20.02;69.98
55914;BME280;58179;48.776;9.124;2022-08-19T05:49:24;96996.06;;;19.99;69.89
55914;BME280;58179;48.776;9.124;2022-08-19T05:51:51;96989.41;;;19.97;69.85
55914;BME280;58179;48.776;9.124;2022-08-19T05:54:19;96994.31;;;19.95;69.97
55914;BME280;58179;48.776;9.124;2022-08-19T05:56:45;96997.66;;;19.92;69.97
55914;BME280;58179;48.776;9.124;2022-08-19T05:59:14;96999.06;;;19.89;70.09
55914;BME280;58179;48.776;9.124;2022-08-19T06:01:45;96993.22;;;19.87;70.44
55914;BME280;58179;48.776;9.124;2022-08-19T06:04:12;96992.44;;;19.87;70.10
55914;BME280;58179;48.776;9.124;2022-08-19T06:06:40;96995.72;;;19.92;70.31
55914;BME280;58179;48.776;9.124;2022-08-19T06:09:07;96995.59;;;19.89;70.32
55914;BME280;58179;48.776;9.124;2022-08-19T06:11:38;96999.88;;;19.90;70.76
55914;BME280;58179;48.776;9.124;2022-08-19T06:14:08;97003.78;;;19.92;70.52
55914;BME280;58179;48.776;9.124;2022-08-19T06:16:35;96996.88;;;19.91;70.62
55914;BME280;58179;48.776;9.124;2022-08-19T06:19:04;97003.78;;;19.92;70.92
55914;BME280;58179;48.776;9.124;2022-08-19T06:21:32;96996.88;;;19.91;70.58
55914;BME280;58179;48.776;9.124;2022-08-19T06:23:59;96989.59;;;19.92;70.76
55914;BME280;58179;48.776;9.124;2022-08-19T06:26:25;96993.84;;;19.93;70.56
55914;BME280;58179;48.776;9.124;2022-08-19T06:28:53;96994.97;;;19.92;70.76
55914;BME280;58179;48.776;9.124;2022-08-19T06:31:23;96996.06;;;19.91;70.64
55914;BME280;58179;48.776;9.124;2022-08-19T06:33:50;96994.00;;;19.96;71.30
55914;BME280;58179;48.776;9.124;2022-08-19T06:36:18;96997.00;;;19.95;70.68
55914;BME280;58179;48.776;9.124;2022-08-19T06:38:45;96996.22;;;19.94;70.86
55914;BME280;58179;48.776;9.124;2022-08-19T06:41:11;97006.16;;;19.94;71.58
55914;BME280;58179;48.776;9.124;2022-08-19T06:43:37;97000.00;;;19.93;71.17
55914;BME280;58179;48.776;9.124;2022-08-19T06:46:11;97002.69;;;19.93;71.09
55914;BME280;58179;48.776;9.124;2022-08-19T06:48:37;97010.44;;;19.95;71.18
55914;BME280;58179;48.776;9.124;2022-08-19T06:51:03;97010.13;;;19.96;71.47
55914;BME280;58179;48.776;9.124;2022-08-19T06:53:31;97012.50;;;19.98;71.35
55914;BME280;58179;48.776;9.124;2022-08-19T06:55:57;97009.00;;;19.97;71.39
55914;BME280;58179;48.776;9.124;2022-08-19T06:58:28;97006.94;;;19.94;72.00
55914;BME280;58179;48.776;9.124;2022-08-19T07:00:59;97012.50;;;19.98;72.29
55914;BME280;58179;48.776;9.124;2022-08-19T07:03:29;97016.75;;;19.99;72.92
55914;BME280;58179;48.776;9.124;2022-08-19T07:05:57;97006.31;;;19.97;73.30
55914;BME280;58179;48.776;9.124;2022-08-19T07:08:23;97017.84;;;19.98;74.55
55914;BME280;58179;48.776;9.124;2022-08-19T07:10:52;97009.63;;;19.94;75.19
55914;BME280;58179;48.776;9.124;2022-08-19T07:13:19;97017.69;;;19.94;75.75
55914;BME280;58179;48.776;9.124;2022-08-19T07:15:45;97014.69;;;19.96;76.01
55914;BME280;58179;48.776;9.124;2022-08-19T07:18:12;97016.78;;;19.90;75.77
55914;BME280;58179;48.776;9.124;2022-08-19T07:20:40;97021.66;;;19.88;75.46
55914;BME280;58179;48.776;9.124;2022-08-19T07:23:07;97020.09;;;19.87;74.81
55914;BME280;58179;48.776;9.124;2022-08-19T07:25:33;97028.16;;;19.79;74.68
55914;BME280;58179;48.776;9.124;2022-08-19T07:28:01;97022.00;;;19.78;75.56
55914;BME280;58179;48.776;9.124;2022-08-19T07:30:27;97022.66;;;19.75;75.85
55914;BME280;58179;48.776;9.124;2022-08-19T07:32:53;97018.69;;;19.73;76.33
55914;BME280;58179;48.776;9.124;2022-08-19T07:35:19;97025.16;;;19.71;76.00
55914;BME280;58179;48.776;9.124;2022-08-19T07:37:47;97024.84;;;19.73;76.52
55914;BME280;58179;48.776;9.124;2022-08-19T07:40:13;97033.38;;;19.75;76.63
55914;BME280;58179;48.776;9.124;2022-08-19T07:42:39;97026.91;;;19.76;77.09
55914;BME280;58179;48.776;9.124;2022-08-19T07:45:08;97026.56;;;19.78;76.55
55914;BME280;58179;48.776;9.124;2022-08-19T07:47:35;97025.16;;;19.89;75.71
55914;BME280;58179;48.776;9.124;2022-08-19T07:50:01;97019.94;;;19.84;74.55
55914;BME280;58179;48.776;9.124;2022-08-19T07:52:30;97022.63;;;19.84;74.80
55914;BME280;58179;48.776;9.124;2022-08-19T07:54:57;97031.16;;;19.86;74.84
55914;BME280;58179;48.776;9.124;2022-08-19T07:57:25;97030.69;;;19.84;74.14
55914;BME280;58179;48.776;9.124;2022-08-19T07:59:51;97024.66;;;19.87;74.58
55914;BME280;58179;48.776;9.124;2022-08-19T08:02:17;97032.56;;;19.92;73.51
55914;BME280;58179;48.776;9.124;2022-08-19T08:04:43;97028.00;;;19.84;72.64
55914;BME280;58179;48.776;9.124;2022-08-19T08:07:27;97024.19;;;19.85;72.71
55914;BME280;58179;48.776;9.124;2022-08-19T08:10:13;97032.09;;;19.90;72.67
55914;BME280;58179;48.776;9.124;2022-08-19T08:12:40;97034.94;;;19.85;73.40
55914;BME280;58179;48.776;9.124;2022-08-19T08:15:11;97031.81;;;19.83;73.32
55914;BME280;58179;48.776;9.124;2022-08-19T08:17:39;97033.69;;;19.82;73.68
55914;BME280;58179;48.776;9.124;2022-08-19T08:20:06;97037.97;;;19.83;73.58
55914;BME280;58179;48.776;9.124;2022-08-19T08:22:33;97036.69;;;19.81;73.32
55914;BME280;58179;48.776;9.124;2022-08-19T08:25:21;97042.53;;;19.83;73.00
55914;BME280;58179;48.776;9.124;2022-08-19T08:27:49;97045.69;;;19.85;73.01
55914;BME280;58179;48.776;9.124;2022-08-19T08:30:20;97046.81;;;19.84;72.96
55914;BME280;58179;48.776;9.124;2022-08-19T08:32:47;97046.47;;;19.85;72.88
55914;BME280;58179;48.776;9.124;2022-08-19T08:35:16;97041.88;;;19.86;72.32
55914;BME280;58179;48.776;9.124;2022-08-19T08:37:42;97043.63;;;19.90;72.79
55914;BME280;58179;48.776;9.124;2022-08-19T08:40:18;97053.28;;;19.91;72.55
55914;BME280;58179;48.776;9.124;2022-08-19T08:42:54;97039.84;;;19.91;72.59
55914;BME280;58179;48.776;9.124;2022-08-19T08:45:26;97048.34;;;19.93;73.10
55914;BME280;58179;48.776;9.124;2022-08-19T08:47:54;97048.03;;;19.95;72.31
55914;BME280;58179;48.776;9.124;2022-08-19T08:50:29;97042.34;;;19.96;72.34
55914;BME280;58179;48.776;9.124;2022-08-19T08:52:58;97042.84;;;19.98;72.75
55914;BME280;58179;48.776;9.124;2022-08-19T08:55:28;97040.28;;;20.02;72.70
55914;BME280;58179;48.776;9.124;2022-08-19T08:57:59;97041.06;;;20.02;73.14
55914;BME280;58179;48.776;9.124;2022-08-19T09:00:29;97043.56;;;20.07;73.58
55914;BME280;58179;48.776;9.124;2022-08-19T09:02:58;97047.84;;;20.08;73.06
55914;BME280;58179;48.776;9.124;2022-08-19T09:05:35;97050.22;;;20.10;73.34
55914;BME280;58179;48.776;9.124;2022-08-19T09:08:08;97051.50;;;20.13;73.64
55914;BME280;58179;48.776;9.124;2022-08-19T09:10:46;97049.59;;;20.13;73.51
55914;BME280;58179;48.776;9.124;2022-08-19T09:13:23;97041.53;;;20.13;73.30
55914;BME280;58179;48.776;9.124;2022-08-19T09:15:58;97045.75;;;20.23;72.97
55914;BME280;58179;48.776;9.124;2022-08-19T09:18:40;97047.31;;;20.24;72.53
55914;BME280;58179;48.776;9.124;2022-08-19T09:21:07;97056.19;;;20.24;72.28
55914;BME280;58179;48.776;9.124;2022-08-19T09:23:34;97050.78;;;20.33;72.49
55914;BME280;58179;48.776;9.124;2022-08-19T09:26:08;97055.38;;;20.32;72.20
55914;BME280;58179;48.776;9.124;2022-08-19T09:28:35;97060.94;;;20.36;71.60
55914;BME280;58179;48.776;9.124;2022-08-19T09:31:02;97060.94;;;20.36;71.52
55914;BME280;58179;48.776;9.124;2022-08-19T09:33:28;97052.88;;;20.36;71.51
55914;BME280;58179;48.776;9.124;2022-08-19T09:36:03;97058.66;;;20.46;71.46
55914;BME280;58179;48.776;9.124;2022-08-19T09:38:29;97054.56;;;20.49;71.88
55914;BME280;58179;48.776;9.124;2022-08-19T09:40:55;97062.00;;;20.52;71.67
55914;BME280;58179;48.776;9.124;2022-08-19T09:43:22;97050.88;;;20.54;71.24
55914;BME280;58179;48.776;9.124;2022-08-19T09:45:48;97051.84;;;20.58;71.44
55914;BME280;58179;48.776;9.124;2022-08-19T09:48:14;97058.91;;;20.62;71.70
55914;BME280;58179;48.776;9.124;2022-08-19T09:50:40;97061.75;;;20.66;71.05
55914;BME280;58179;48.776;9.124;2022-08-19T09:53:06;97063.78;;;20.69;71.15
55914;BME280;58179;48.776;9.124;2022-08-19T09:55:33;97065.06;;;20.71;71.53
55914;BME280;58179;48.776;9.124;2022-08-19T09:58:00;97068.53;;;20.72;71.53
55914;BME280;58179;48.776;9.124;2022-08-19T10:00:28;97068.53;;;20.72;71.41
55914;BME280;58179;48.776;9.124;2022-08-19T10:02:54;97065.53;;;20.73;71.43
55914;BME280;58179;48.776;9.124;2022-08-19T10:05:20;97063.28;;;20.75;71.13
55914;BME280;58179;48.776;9.124;2022-08-19T10:08:04;97060.28;;;20.77;70.41
55914;BME280;58179;48.776;9.124;2022-08-19T10:10:35;97064.84;;;20.76;71.00
55914;BME280;58179;48.776;9.124;2022-08-19T10:13:01;97057.25;;;20.78;70.55
55914;BME280;58179;48.776;9.124;2022-08-19T10:15:28;97060.75;;;20.79;70.58
55914;BME280;58179;48.776;9.124;2022-08-19T10:17:54;97063.13;;;20.80;70.27
55914;BME280;58179;48.776;9.124;2022-08-19T10:20:20;97065.00;;;20.80;70.17
55914;BME280;58179;48.776;9.124;2022-08-19T10:22:47;97059.31;;;20.81;70.69
55914;BME280;58179;48.776;9.124;2022-08-19T10:25:13;97065.00;;;20.80;70.62
55914;BME280;58179;48.776;9.124;2022-08-19T10:27:42;97065.47;;;20.82;70.45
55914;BME280;58179;48.776;9.124;2022-08-19T10:30:09;97062.78;;;20.82;70.39
55914;BME280;58179;48.776;9.124;2022-08-19T10:32:37;97055.16;;;20.84;70.38
55914;BME280;58179;48.776;9.124;2022-08-19T10:35:04;97057.69;;;20.89;70.86
55914;BME280;58179;48.776;9.124;2022-08-19T10:37:34;97054.91;;;20.98;71.09
55914;BME280;58179;48.776;9.124;2022-08-19T10:39:59;97052.59;;;20.96;70.38
55914;BME280;58179;48.776;9.124;2022-08-19T10:42:27;97054.59;;;20.99;69.53
55914;BME280;58179;48.776;9.124;2022-08-19T10:44:53;97051.88;;;21.08;69.32
55914;BME280;58179;48.776;9.124;2022-08-19T10:47:19;97047.59;;;21.07;69.32
55914;BME280;58179;48.776;9.124;2022-08-19T10:49:48;97055.34;;;21.08;68.97
55914;BME280;58179;48.776;9.124;2022-08-19T10:52:33;97050.75;;;21.09;69.22
55914;BME280;58179;48.776;9.124;2022-08-19T10:54:59;97050.44;;;21.10;69.03
55914;BME280;58179;48.776;9.124;2022-08-19T10:57:44;97052.00;;;21.11;69.05
55914;BME280;58179;48.776;9.124;2022-08-19T11:00:12;97055.13;;;21.13;69.08
55914;BME280;58179;48.776;9.124;2022-08-19T11:02:39;97048.31;;;21.16;69.30
55914;BME280;58179;48.776;9.124;2022-08-19T11:05:08;97052.75;;;21.20;69.25
55914;BME280;58179;48.776;9.124;2022-08-19T11:07:36;97047.63;;;21.28;68.21
55914;BME280;58179;48.776;9.124;2022-08-19T11:10:04;97049.88;;;21.26;68.00
55914;BME280;58179;48.776;9.124;2022-08-19T11:12:30;97044.63;;;21.29;67.77
55914;BME280;58179;48.776;9.124;2022-08-19T11:14:56;97042.84;;;21.33;67.88
55914;BME280;58179;48.776;9.124;2022-08-19T11:17:22;97046.44;;;21.37;68.19
55914;BME280;58179;48.776;9.124;2022-08-19T11:19:49;97043.59;;;21.42;67.20
55914;BME280;58179;48.776;9.124;2022-08-19T11:22:16;97048.75;;;21.47;67.13
55914;BME280;58179;48.776;9.124;2022-08-19T11:24:43;97046.06;;;21.47;66.16
55914;BME280;58179;48.776;9.124;2022-08-19T11:27:09;97041.16;;;21.49;66.14
55914;BME280;58179;48.776;9.124;2022-08-19T11:29:37;97032.97;;;21.58;66.96
55914;BME280;58179;48.776;9.124;2022-08-19T11:32:06;97044.47;;;21.67;65.93
55914;BME280;58179;48.776;9.124;2022-08-19T11:34:32;97040.97;;;21.67;66.43
55914;BME280;58179;48.776;9.124;2022-08-19T11:36:58;97048.28;;;21.66;66.41
55914;BME280;58179;48.776;9.124;2022-08-19T11:39:29;97042.88;;;21.66;66.23
55914;BME280;58179;48.776;9.124;2022-08-19T11:41:57;97041.91;;;21.71;66.55
55914;BME280;58179;48.776;9.124;2022-08-19T11:44:24;97038.88;;;21.72;66.82
55914;BME280;58179;48.776;9.124;2022-08-19T11:46:50;97039.94;;;21.80;66.60
55914;BME280;58179;48.776;9.124;2022-08-19T11:49:19;97043.66;;;21.87;66.94
55914;BME280;58179;48.776;9.124;2022-08-19T11:51:45;97039.94;;;21.92;66.14
55914;BME280;58179;48.776;9.124;2022-08-19T11:54:13;97037.31;;;22.04;66.67
55914;BME280;58179;48.776;9.124;2022-08-19T11:56:41;97037.53;;;21.99;64.37
55914;BME280;58179;48.776;9.124;2022-08-19T11:59:08;97045.41;;;22.04;65.04
55914;BME280;58179;48.776;9.124;2022-08-19T12:01:36;97041.47;;;22.02;64.67
55914;BME280;58179;48.776;9.124;2022-08-19T12:04:02;97039.22;;;22.04;65.14
55914;BME280;58179;48.776;9.124;2022-08-19T12:06:32;97036.41;;;22.00;64.06
55914;BME280;58179;48.776;9.124;2022-08-19T12:09:02;97028.97;;;21.97;64.02
55914;BME280;58179;48.776;9.124;2022-08-19T12:11:29;97039.13;;;22.00;64.46
55914;BME280;58179;48.776;9.124;2022-08-19T12:13:57;97033.41;;;22.02;64.24
55914;BME280;58179;48.776;9.124;2022-08-19T12:16:25;97029.59;;;22.03;64.76
55914;BME280;58179;48.776;9.124;2022-08-19T12:18:53;97034.28;;;22.06;63.53
55914;BME280;58179;48.776;9.124;2022-08-19T12:21:23;97033.63;;;22.09;63.70
55914;BME280;58179;48.776;9.124;2022-08-19T12:23:51;97033.16;;;22.07;62.91
55914;BME280;58179;48.776;9.124;2022-08-19T12:26:18;97030.94;;;22.09;63.60
55914;BME280;58179;48.776;9.124;2022-08-19T12:28:44;97025.97;;;22.11;63.77
55914;BME280;58179;48.776;9.124;2022-08-19T12:31:11;97023.75;;;22.13;63.31
55914;BME280;58179;48.776;9.124;2022-08-19T12:33:37;97032.94;;;22.12;62.24
55914;BME280;58179;48.776;9.124;2022-08-19T12:36:07;97032.16;;;22.11;63.16
55914;BME280;58179;48.776;9.124;2022-08-19T12:38:34;97030.94;;;22.09;63.63
55914;BME280;58179;48.776;9.124;2022-08-19T12:41:00;97028.25;;;22.09;63.97
55914;BME280;58179;48.776;9.124;2022-08-19T12:43:26;97030.69;;;22.02;63.93
55914;BME280;58179;48.776;9.124;2022-08-19T12:45:52;97032.94;;;21.99;64.82
55914;BME280;58179;48.776;9.124;2022-08-19T12:48:20;97034.38;;;21.97;64.60
55914;BME280;58179;48.776;9.124;2022-08-19T12:50:45;97028.53;;;21.95;64.14
55914;BME280;58179;48.776;9.124;2022-08-19T12:53:13;97025.50;;;21.96;64.06
55914;BME280;58179;48.776;9.124;2022-08-19T12:55:39;97025.97;;;21.98;64.31
55914;BME280;58179;48.776;9.124;2022-08-19T12:58:05;97031.03;;;22.00;64.03
55914;BME280;58179;48.776;9.124;2022-08-19T13:00:33;97031.50;;;22.02;64.40
55914;BME280;58179;48.776;9.124;2022-08-19T13:02:59;97033.97;;;22.07;65.40
55914;BME280;58179;48.776;9.124;2022-08-19T13:05:29;97031.19;;;22.16;65.31